createdAt,value
2019-02-09T00:02:31.652Z,18.40
2019-02-09T00:07:37.042Z,18.40
2019-02-09T00:12:42.440Z,18.40
2019-02-09T00:17:47.836Z,18.30
2019-02-09T00:22:53.384Z,18.40
2019-02-09T00:27:58.780Z,18.30
2019-02-09T00:33:04.428Z,18.30
2019-02-09T00:38:09.827Z,18.30
2019-02-09T00:43:15.223Z,18.30
2019-02-09T00:48:20.601Z,18.30
2019-02-09T00:53:25.987Z,18.30
2019-02-09T00:58:31.372Z,18.30
2019-02-09T01:03:36.908Z,18.30
2019-02-09T01:08:42.296Z,18.30
2019-02-09T01:13:47.677Z,18.30
2019-02-09T01:18:53.061Z,18.20
2019-02-09T01:23:58.476Z,18.20
2019-02-09T01:29:03.862Z,18.20
2019-02-09T01:34:09.251Z,18.20
2019-02-09T01:39:14.645Z,18.20
2019-02-09T01:44:20.031Z,18.20
2019-02-09T01:49:25.408Z,18.20
2019-02-09T01:54:30.796Z,18.20
2019-02-09T01:59:36.192Z,18.10
2019-02-09T02:04:41.916Z,18.10
2019-02-09T02:09:47.472Z,18.10
2019-02-09T02:14:52.903Z,18.20
2019-02-09T02:19:58.248Z,18.10
2019-02-09T02:25:05.575Z,18.10
2019-02-09T02:30:23.730Z,18.10
2019-02-09T02:35:29.609Z,18.10
2019-02-09T02:40:35.363Z,18.10
2019-02-09T02:45:40.755Z,18.10
2019-02-09T02:50:46.884Z,18.10
2019-02-09T02:55:52.346Z,18.10
2019-02-09T03:00:57.880Z,18.10
2019-02-09T03:06:03.305Z,18.00
2019-02-09T03:11:08.698Z,18.10
2019-02-09T03:16:14.087Z,18.00
2019-02-09T03:21:19.480Z,18.00
2019-02-09T03:26:28.214Z,18.10
2019-02-09T03:31:33.603Z,18.00
2019-02-09T03:36:38.996Z,18.10
2019-02-09T03:41:44.393Z,18.00
2019-02-09T03:46:49.795Z,18.10
2019-02-09T03:51:55.167Z,18.00
2019-02-09T03:57:00.584Z,18.00
2019-02-09T04:02:06.037Z,18.00
2019-02-09T04:07:11.787Z,18.00
2019-02-09T04:12:17.187Z,18.00
2019-02-09T04:17:22.578Z,17.90
2019-02-09T04:22:27.962Z,18.00
2019-02-09T04:27:53.322Z,18.00
2019-02-09T04:32:59.108Z,18.00
2019-02-09T04:38:04.561Z,18.00
2019-02-09T04:43:09.954Z,17.90
2019-02-09T04:48:15.346Z,18.00
2019-02-09T04:53:21.028Z,17.90
2019-02-09T04:58:26.411Z,17.90
2019-02-09T05:03:31.803Z,17.90
2019-02-09T05:08:37.432Z,17.90
2019-02-09T05:13:42.836Z,17.90
2019-02-09T05:18:48.308Z,17.90
2019-02-09T05:23:53.799Z,17.80
2019-02-09T05:28:59.183Z,17.80
2019-02-09T05:34:04.912Z,17.90
2019-02-09T05:39:10.302Z,17.90
2019-02-09T05:44:15.694Z,18.00
2019-02-09T05:49:21.094Z,18.00
2019-02-09T05:54:26.479Z,18.10
2019-02-09T05:59:31.867Z,18.10
2019-02-09T06:04:37.252Z,18.20
2019-02-09T06:09:42.643Z,18.30
2019-02-09T06:14:48.030Z,18.30
2019-02-09T06:19:53.409Z,18.30
2019-02-09T06:24:58.796Z,18.40
2019-02-09T06:30:07.484Z,18.40
2019-02-09T06:35:13.419Z,18.50
2019-02-09T06:40:24.268Z,18.50
2019-02-09T06:45:29.657Z,18.50
2019-02-09T06:50:35.047Z,18.50
2019-02-09T06:55:40.435Z,18.60
2019-02-09T07:00:45.839Z,18.50
2019-02-09T07:05:51.218Z,18.50
2019-02-09T07:10:56.679Z,18.50
2019-02-09T07:16:02.063Z,18.40
2019-02-09T07:21:07.439Z,18.50
2019-02-09T07:26:12.845Z,18.50
2019-02-09T07:31:18.231Z,18.50
2019-02-09T07:36:23.614Z,18.50
2019-02-09T07:41:29.003Z,18.40
2019-02-09T07:46:34.411Z,18.40
2019-02-09T07:51:39.798Z,18.40
2019-02-09T07:56:45.173Z,18.30
2019-02-09T08:01:50.571Z,18.40
2019-02-09T08:06:55.950Z,18.40
2019-02-09T08:12:02.752Z,18.40
2019-02-09T08:17:08.139Z,18.40
2019-02-09T08:22:13.539Z,18.30
2019-02-09T08:27:23.597Z,18.40
2019-02-09T08:32:26.012Z,18.30
2019-02-09T08:37:31.401Z,18.30
2019-02-09T08:42:36.791Z,18.30
2019-02-09T08:47:42.180Z,18.30
2019-02-09T08:52:47.735Z,18.30
2019-02-09T08:57:53.953Z,18.30
2019-02-09T09:02:59.809Z,18.30
2019-02-09T09:08:06.269Z,18.30
2019-02-09T09:13:11.681Z,18.30
2019-02-09T09:18:17.111Z,18.30
2019-02-09T09:23:22.546Z,18.40
2019-02-09T09:28:28.007Z,18.40
2019-02-09T09:33:33.558Z,18.40
2019-02-09T09:38:39.022Z,18.40
2019-02-09T09:43:44.416Z,18.40
2019-02-09T09:48:49.810Z,18.50
2019-02-09T09:53:55.198Z,18.50
2019-02-09T09:59:00.604Z,18.50
2019-02-09T10:04:06.061Z,18.50
2019-02-09T10:09:11.527Z,18.60
2019-02-09T10:14:16.916Z,18.60
2019-02-09T10:19:22.301Z,18.70
2019-02-09T10:24:27.700Z,18.70
2019-02-09T10:29:33.102Z,18.70
2019-02-09T10:34:38.582Z,18.80
2019-02-09T10:39:44.065Z,18.80
2019-02-09T10:45:20.315Z,18.70
2019-02-09T10:50:48.067Z,18.70
2019-02-09T10:55:53.597Z,18.80
2019-02-09T11:01:04.539Z,18.80
2019-02-09T11:06:09.955Z,18.90
2019-02-09T11:11:15.492Z,18.70
2019-02-09T11:16:20.886Z,18.90
2019-02-09T11:21:26.325Z,19.00
2019-02-09T11:26:31.727Z,19.00
2019-02-09T11:31:39.198Z,19.00
2019-02-09T11:36:44.265Z,19.00
2019-02-09T11:41:49.656Z,19.00
2019-02-09T11:46:55.064Z,19.00
2019-02-09T11:52:00.512Z,19.00
2019-02-09T11:57:06.099Z,19.00
2019-02-09T12:02:11.567Z,19.00
2019-02-09T12:07:18.484Z,19.00
2019-02-09T12:12:24.040Z,19.00
2019-02-09T12:17:29.508Z,19.00
2019-02-09T12:22:34.906Z,19.00
2019-02-09T12:27:40.463Z,19.10
2019-02-09T12:32:45.850Z,19.10
2019-02-09T12:37:51.410Z,19.10
2019-02-09T12:42:56.938Z,19.10
2019-02-09T12:48:02.770Z,19.20
2019-02-09T12:53:09.068Z,19.20
2019-02-09T12:58:14.546Z,19.20
2019-02-09T13:03:31.001Z,19.30
2019-02-09T13:08:32.555Z,19.20
2019-02-09T13:13:38.207Z,19.20
2019-02-09T13:18:43.589Z,19.20
2019-02-09T13:23:49.049Z,19.20
2019-02-09T13:28:54.442Z,19.20
2019-02-09T13:33:59.898Z,19.20
2019-02-09T13:39:08.001Z,19.30
2019-02-09T13:44:13.808Z,19.30
2019-02-09T13:49:19.209Z,19.30
2019-02-09T13:54:24.601Z,19.30
2019-02-09T13:59:29.990Z,19.30
2019-02-09T14:04:40.364Z,19.30
2019-02-09T14:09:45.957Z,19.30
2019-02-09T14:14:51.394Z,19.30
2019-02-09T14:19:59.182Z,19.20
2019-02-09T14:25:06.680Z,19.30
2019-02-09T14:30:17.177Z,19.30
2019-02-09T14:35:23.847Z,19.30
2019-02-09T14:40:34.843Z,19.40
2019-02-09T14:45:43.446Z,19.50
2019-02-09T14:50:48.837Z,19.50
2019-02-09T14:55:54.427Z,19.50
2019-02-09T15:00:59.838Z,19.50
2019-02-09T15:06:06.076Z,19.50
2019-02-09T15:11:11.455Z,19.50
2019-02-09T15:16:21.690Z,19.50
2019-02-09T15:21:27.118Z,19.50
2019-02-09T15:26:37.084Z,19.50
2019-02-09T15:31:42.472Z,19.60
2019-02-09T15:36:47.872Z,19.60
2019-02-09T15:41:53.257Z,19.60
2019-02-09T15:46:58.660Z,19.60
2019-02-09T15:52:04.789Z,19.50
2019-02-09T15:57:10.183Z,19.60
2019-02-09T16:02:15.646Z,19.50
2019-02-09T16:07:21.291Z,19.50
2019-02-09T16:12:26.721Z,19.60
2019-02-09T16:17:32.220Z,19.60
2019-02-09T16:22:37.688Z,19.60
2019-02-09T16:27:43.146Z,19.60
2019-02-09T16:32:48.807Z,19.50
2019-02-09T16:37:54.741Z,19.60
2019-02-09T16:43:00.191Z,19.50
2019-02-09T16:48:12.342Z,19.50
2019-02-09T16:53:17.871Z,19.50
2019-02-09T16:58:23.386Z,19.50
2019-02-09T17:03:28.958Z,19.50
2019-02-09T17:08:34.350Z,19.60
2019-02-09T17:13:39.732Z,19.60
2019-02-09T17:18:45.168Z,19.60
2019-02-09T17:23:50.580Z,19.60
2019-02-09T17:28:55.969Z,19.50
2019-02-09T17:34:01.350Z,19.50
2019-02-09T17:39:08.965Z,19.50
2019-02-09T17:44:14.723Z,19.50
2019-02-09T17:49:20.139Z,19.50
2019-02-09T17:54:25.524Z,19.60
2019-02-09T17:59:30.909Z,19.50
2019-02-09T18:04:36.315Z,19.50
2019-02-09T18:09:42.145Z,19.50
2019-02-09T18:14:47.602Z,19.50
2019-02-09T18:19:53.000Z,19.50
2019-02-09T18:24:58.382Z,19.50
2019-02-09T18:30:06.159Z,19.50
2019-02-09T18:35:11.929Z,19.50
2019-02-09T18:40:21.095Z,19.50
2019-02-09T18:45:57.601Z,19.50
2019-02-09T18:50:58.273Z,19.40
2019-02-09T18:56:03.670Z,19.50
2019-02-09T19:01:09.268Z,19.50
2019-02-09T19:06:14.675Z,19.40
2019-02-09T19:11:20.051Z,19.40
2019-02-09T19:16:25.514Z,19.40
2019-02-09T19:21:30.919Z,19.40
2019-02-09T19:26:36.473Z,19.40
2019-02-09T19:31:41.937Z,19.40
2019-02-09T19:36:47.321Z,19.30
2019-02-09T19:41:52.741Z,19.30
2019-02-09T19:46:58.141Z,19.30
2019-02-09T19:52:03.544Z,19.30
2019-02-09T19:57:08.994Z,19.30
2019-02-09T20:02:14.395Z,19.30
2019-02-09T20:07:21.320Z,19.30
2019-02-09T20:12:26.742Z,19.30
2019-02-09T20:17:32.101Z,19.20
2019-02-09T20:22:37.492Z,19.30
2019-02-09T20:27:42.883Z,19.20
2019-02-09T20:32:48.613Z,19.20
2019-02-09T20:37:54.241Z,19.20
2019-02-09T20:43:01.946Z,19.20
2019-02-09T20:48:08.014Z,19.20
2019-02-09T20:53:13.638Z,19.20
2019-02-09T20:58:19.309Z,19.20
2019-02-09T21:03:24.725Z,19.20
2019-02-09T21:08:30.459Z,19.20
2019-02-09T21:13:35.917Z,19.20
2019-02-09T21:18:41.323Z,19.20
2019-02-09T21:23:46.783Z,19.20
2019-02-09T21:28:52.196Z,19.10
2019-02-09T21:33:57.647Z,19.10
2019-02-09T21:39:03.158Z,19.10
2019-02-09T21:44:10.121Z,19.10
2019-02-09T21:49:15.505Z,19.10
2019-02-09T21:54:20.898Z,19.10
2019-02-09T21:59:27.352Z,19.10
2019-02-09T22:04:32.750Z,19.10
2019-02-09T22:09:38.172Z,19.10
2019-02-09T22:14:43.677Z,19.00
2019-02-09T22:19:49.028Z,19.00
2019-02-09T22:24:54.806Z,19.10
2019-02-09T22:30:00.495Z,19.00
2019-02-09T22:35:08.605Z,19.00
2019-02-09T22:40:18.703Z,19.00
2019-02-09T22:45:25.650Z,19.00
2019-02-09T22:50:41.047Z,19.10
2019-02-09T22:56:05.774Z,19.00
2019-02-09T23:01:30.690Z,19.00
2019-02-09T23:06:52.574Z,19.00
2019-02-09T23:11:53.602Z,19.00
2019-02-09T23:16:58.997Z,19.00
2019-02-09T23:22:05.518Z,19.00
2019-02-09T23:27:10.975Z,19.00
2019-02-09T23:32:16.371Z,18.90
2019-02-09T23:37:21.813Z,19.00
2019-02-09T23:42:27.217Z,19.00
2019-02-09T23:47:32.601Z,18.90
2019-02-09T23:52:38.001Z,18.90
2019-02-09T23:57:43.389Z,18.90
